createdAt,value
2019-03-05T00:01:50.431Z,2.70
2019-03-05T00:06:55.537Z,2.80
2019-03-05T00:12:02.675Z,2.90
2019-03-05T00:17:08.540Z,2.80
2019-03-05T00:22:13.312Z,2.70
2019-03-05T00:27:17.934Z,2.70
2019-03-05T00:32:23.311Z,2.70
2019-03-05T00:38:11.267Z,2.60
2019-03-05T00:43:26.928Z,2.70
2019-03-05T00:48:43.685Z,2.70
2019-03-05T00:54:16.257Z,2.70
2019-03-05T00:59:49.553Z,2.80
2019-03-05T01:05:29.749Z,3.00
2019-03-05T01:10:34.224Z,3.10
2019-03-05T01:15:42.104Z,3.00
2019-03-05T01:20:47.115Z,2.90
2019-03-05T01:25:51.758Z,2.80
2019-03-05T01:31:18.496Z,2.80
2019-03-05T01:36:24.936Z,3.00
2019-03-05T01:41:29.916Z,2.90
2019-03-05T01:46:34.935Z,2.90
2019-03-05T01:51:39.621Z,2.80
2019-03-05T01:56:45.646Z,2.90
2019-03-05T02:01:50.533Z,2.90
2019-03-05T02:06:55.755Z,3.00
2019-03-05T02:12:00.630Z,3.00
2019-03-05T02:17:05.072Z,3.00
2019-03-05T02:22:12.643Z,3.00
2019-03-05T02:27:59.462Z,3.00
2019-03-05T02:33:34.350Z,2.90
2019-03-05T02:39:16.882Z,2.90
2019-03-05T02:44:48.449Z,2.90
2019-03-05T02:50:30.909Z,3.20
2019-03-05T02:55:59.161Z,3.20
2019-03-05T03:01:21.889Z,3.00
2019-03-05T03:06:30.173Z,2.90
2019-03-05T03:11:34.829Z,2.70
2019-03-05T03:16:39.582Z,2.70
2019-03-05T03:21:44.967Z,2.80
2019-03-05T03:26:49.320Z,2.80
2019-03-05T03:31:53.969Z,2.70
2019-03-05T03:36:58.618Z,2.70
2019-03-05T03:42:05.075Z,2.70
2019-03-05T03:47:12.592Z,2.60
2019-03-05T03:52:17.585Z,2.50
2019-03-05T03:57:22.250Z,2.60
2019-03-05T04:02:26.827Z,2.70
2019-03-05T04:07:31.292Z,2.80
2019-03-05T04:12:36.013Z,2.90
2019-03-05T04:17:41.043Z,3.00
2019-03-05T04:22:45.483Z,3.00
2019-03-05T04:27:50.352Z,3.00
2019-03-05T04:32:56.723Z,2.90
2019-03-05T04:38:02.048Z,2.80
2019-03-05T04:43:06.513Z,3.00
2019-03-05T04:48:11.210Z,2.90
2019-03-05T04:53:16.184Z,2.80
2019-03-05T04:58:20.766Z,2.60
2019-03-05T05:03:26.559Z,2.50
2019-03-05T05:08:31.356Z,2.40
2019-03-05T05:13:36.266Z,2.50
2019-03-05T05:18:41.459Z,2.40
2019-03-05T05:23:50.021Z,2.40
2019-03-05T05:28:56.705Z,2.40
2019-03-05T05:34:01.560Z,2.30
2019-03-05T05:39:27.814Z,2.20
2019-03-05T05:44:33.514Z,2.20
2019-03-05T05:49:41.339Z,2.10
2019-03-05T05:54:45.774Z,2.30
2019-03-05T05:59:50.896Z,2.20
2019-03-05T06:04:55.437Z,2.10
2019-03-05T06:10:01.153Z,2.00
2019-03-05T06:15:07.715Z,2.10
2019-03-05T06:20:13.097Z,2.10
2019-03-05T06:25:17.549Z,2.10
2019-03-05T06:30:22.291Z,2.20
2019-03-05T06:35:26.828Z,2.30
2019-03-05T06:40:31.424Z,2.40
2019-03-05T06:45:36.604Z,2.60
2019-03-05T06:50:40.998Z,3.90
2019-03-05T06:55:46.935Z,5.20
2019-03-05T07:00:51.219Z,6.30
2019-03-05T07:06:31.104Z,6.80
2019-03-05T07:12:02.482Z,6.00
2019-03-05T07:17:19.675Z,5.00
2019-03-05T07:22:51.260Z,6.80
2019-03-05T07:27:59.912Z,6.70
2019-03-05T07:33:04.441Z,8.10
2019-03-05T07:38:10.896Z,9.60
2019-03-05T07:43:15.663Z,7.90
2019-03-05T07:48:20.554Z,9.10
2019-03-05T07:53:25.149Z,7.70
2019-03-05T07:58:30.570Z,6.60
2019-03-05T08:03:35.938Z,6.10
2019-03-05T08:09:17.702Z,5.70
2019-03-05T08:14:49.861Z,5.50
2019-03-05T08:19:56.733Z,6.10
2019-03-05T08:25:01.315Z,6.10
2019-03-05T08:30:14.126Z,6.00
2019-03-05T08:35:14.163Z,6.60
2019-03-05T08:40:21.664Z,9.20
2019-03-05T08:45:29.625Z,10.80
2019-03-05T08:50:33.337Z,10.90
2019-03-05T08:55:40.137Z,11.70
2019-03-05T09:00:47.953Z,11.70
2019-03-05T09:05:51.975Z,11.90
2019-03-05T09:10:56.739Z,12.70
2019-03-05T09:16:02.198Z,12.30
2019-03-05T09:21:07.573Z,12.50
2019-03-05T09:26:13.148Z,12.70
2019-03-05T09:31:18.439Z,12.20
2019-03-05T09:36:23.310Z,12.70
2019-03-05T09:41:27.704Z,11.60
2019-03-05T09:46:34.610Z,12.10
2019-03-05T09:51:39.231Z,10.90
2019-03-05T09:56:44.126Z,11.70
2019-03-05T10:01:54.805Z,11.50
2019-03-05T10:06:59.799Z,10.50
2019-03-05T10:12:05.900Z,11.00
2019-03-05T10:17:10.482Z,10.70
2019-03-05T10:22:15.177Z,10.40
2019-03-05T10:27:19.556Z,10.80
2019-03-05T10:32:24.771Z,10.80
2019-03-05T10:37:29.606Z,10.80
2019-03-05T10:42:34.090Z,11.00
2019-03-05T10:47:39.671Z,10.20
2019-03-05T10:52:44.170Z,9.90
2019-03-05T10:57:49.392Z,10.10
2019-03-05T11:02:54.810Z,10.20
2019-03-05T11:07:59.547Z,10.40
2019-03-05T11:13:04.496Z,11.20
2019-03-05T11:18:28.710Z,10.70
2019-03-05T11:23:33.580Z,10.60
2019-03-05T11:28:40.690Z,9.60
2019-03-05T11:33:49.247Z,9.50
2019-03-05T11:39:01.807Z,9.80
2019-03-05T11:44:10.532Z,10.50
2019-03-05T11:49:18.364Z,11.00
2019-03-05T11:54:29.758Z,11.20
2019-03-05T11:59:36.056Z,11.10
2019-03-05T12:04:42.471Z,10.70
2019-03-05T12:09:48.847Z,10.30
2019-03-05T12:14:53.828Z,10.10
2019-03-05T12:19:59.846Z,9.70
2019-03-05T12:25:07.920Z,9.40
2019-03-05T12:30:17.988Z,9.40
2019-03-05T12:35:27.960Z,9.50
2019-03-05T12:40:32.737Z,9.50
2019-03-05T12:45:46.417Z,9.50
2019-03-05T12:50:54.163Z,9.80
2019-03-05T12:56:24.697Z,9.40
2019-03-05T13:02:44.982Z,9.40
2019-03-05T13:07:52.504Z,9.20
2019-03-05T13:13:51.373Z,9.40
2019-03-05T13:19:15.298Z,9.20
2019-03-05T13:24:34.979Z,9.40
2019-03-05T13:29:41.741Z,9.20
2019-03-05T13:34:47.539Z,9.10
2019-03-05T13:39:54.961Z,9.00
2019-03-05T13:44:59.383Z,9.20
2019-03-05T13:50:32.057Z,9.10
2019-03-05T13:56:43.987Z,8.90
2019-03-05T14:01:48.907Z,8.50
2019-03-05T14:07:29.065Z,8.30
2019-03-05T14:12:33.629Z,8.10
2019-03-05T14:17:42.522Z,8.10
2019-03-05T14:22:47.314Z,8.00
2019-03-05T14:28:00.325Z,7.90
2019-03-05T14:33:18.476Z,7.90
2019-03-05T14:38:35.320Z,7.90
2019-03-05T14:44:00.428Z,7.90
2019-03-05T14:49:19.541Z,7.90
2019-03-05T14:54:33.050Z,7.70
2019-03-05T14:59:53.820Z,8.00
2019-03-05T15:05:06.153Z,8.10
2019-03-05T15:10:16.986Z,8.00
2019-03-05T15:15:37.252Z,7.60
2019-03-05T15:20:49.286Z,7.50
2019-03-05T15:26:13.170Z,7.50
2019-03-05T15:31:26.790Z,7.30
2019-03-05T15:36:54.412Z,7.10
2019-03-05T15:42:04.241Z,7.00
2019-03-05T15:47:25.433Z,6.80
2019-03-05T15:52:35.789Z,6.60
2019-03-05T15:58:05.421Z,6.40
2019-03-05T16:03:12.793Z,6.30
2019-03-05T16:08:32.629Z,6.10
2019-03-05T16:13:44.808Z,6.00
2019-03-05T16:18:56.752Z,5.90
2019-03-05T16:24:06.416Z,5.70
2019-03-05T16:29:20.965Z,5.60
2019-03-05T16:34:45.718Z,5.50
2019-03-05T16:40:13.788Z,5.50
2019-03-05T16:45:38.325Z,5.40
2019-03-05T16:50:57.059Z,5.40
2019-03-05T16:56:30.187Z,5.30
2019-03-05T17:01:53.777Z,5.30
2019-03-05T17:07:18.666Z,5.30
2019-03-05T17:12:24.233Z,5.30
2019-03-05T17:17:29.162Z,5.20
2019-03-05T17:22:34.391Z,5.20
2019-03-05T17:27:42.093Z,5.10
2019-03-05T17:32:48.034Z,5.00
2019-03-05T17:37:53.755Z,5.00
2019-03-05T17:42:58.720Z,4.90
2019-03-05T17:48:05.955Z,4.90
2019-03-05T17:53:10.850Z,4.90
2019-03-05T17:58:15.929Z,4.80
2019-03-05T18:03:21.108Z,4.80
2019-03-05T18:08:26.251Z,4.70
2019-03-05T18:13:30.974Z,4.60
2019-03-05T18:18:36.655Z,4.60
2019-03-05T18:23:41.806Z,4.50
2019-03-05T18:28:46.761Z,4.50
2019-03-05T18:33:55.801Z,4.50
2019-03-05T18:39:00.744Z,4.50
2019-03-05T18:44:06.816Z,4.50
2019-03-05T18:49:15.581Z,4.50
2019-03-05T18:54:22.782Z,4.50
2019-03-05T18:59:28.184Z,4.50
2019-03-05T19:04:32.796Z,4.50
2019-03-05T19:09:37.187Z,4.40
2019-03-05T19:14:41.998Z,4.40
2019-03-05T19:19:46.931Z,4.40
2019-03-05T19:24:51.523Z,4.40
2019-03-05T19:29:56.367Z,4.40
2019-03-05T19:35:01.245Z,4.40
2019-03-05T19:40:07.873Z,4.40
2019-03-05T19:45:13.174Z,4.40
2019-03-05T19:50:18.787Z,4.40
2019-03-05T19:55:23.632Z,4.40
2019-03-05T20:00:34.117Z,4.30
2019-03-05T20:05:40.146Z,4.30
2019-03-05T20:10:45.466Z,4.40
2019-03-05T20:15:57.246Z,4.40
2019-03-05T20:21:02.305Z,4.40
2019-03-05T20:26:07.891Z,4.40
2019-03-05T20:31:13.170Z,4.50
2019-03-05T20:36:18.030Z,4.40
2019-03-05T20:41:24.015Z,4.40
2019-03-05T20:46:29.614Z,4.40
2019-03-05T20:51:37.482Z,4.40
2019-03-05T20:56:42.255Z,4.40
2019-03-05T21:01:47.383Z,4.40
2019-03-05T21:06:53.496Z,4.30
2019-03-05T21:11:58.378Z,4.30
2019-03-05T21:17:03.322Z,4.40
2019-03-05T21:22:08.233Z,4.40
2019-03-05T21:27:13.751Z,4.40
2019-03-05T21:32:19.927Z,4.40
2019-03-05T21:37:26.178Z,4.30
2019-03-05T21:42:31.901Z,4.20
2019-03-05T21:47:36.676Z,4.20
2019-03-05T21:52:41.486Z,4.20
2019-03-05T21:57:46.894Z,4.20
2019-03-05T22:02:54.057Z,4.20
2019-03-05T22:08:02.409Z,4.10
2019-03-05T22:13:08.568Z,4.10
2019-03-05T22:18:14.271Z,4.20
2019-03-05T22:23:20.100Z,4.20
2019-03-05T22:28:24.992Z,4.20
2019-03-05T22:33:30.030Z,4.20
2019-03-05T22:38:35.630Z,4.20
2019-03-05T22:43:40.204Z,4.10
2019-03-05T22:48:45.036Z,3.80
2019-03-05T22:53:50.675Z,3.60
2019-03-05T22:58:55.544Z,3.50
2019-03-05T23:04:00.942Z,3.40
2019-03-05T23:09:12.912Z,3.30
2019-03-05T23:14:17.688Z,3.20
2019-03-05T23:19:23.207Z,3.10
2019-03-05T23:24:28.061Z,3.10
2019-03-05T23:29:52.969Z,3.00
2019-03-05T23:34:57.875Z,3.10
2019-03-05T23:40:02.685Z,3.00
2019-03-05T23:45:07.789Z,3.00
2019-03-05T23:50:12.781Z,3.00
2019-03-05T23:55:18.207Z,3.00
